Time;durP1;ratioP1;P1;durP2;ratioP2;P2;SDS_P1;SDS_P2;PMS_P1;PMS_P2;Temp;Humidity;BMP_temperature;BMP_pressure;BME280_temperature;BME280_humidity;BME280_pressure;Samples;Min_cycle;Max_cycle;Signal;HPM_P1;HPM_P2
2024/03/01 00:02:14;;;;;;;24.70;13.03;;;5.60;99.90;;;;;;4971125;28;20532;-73
2024/03/01 00:04:40;;;;;;;25.93;12.57;;;5.50;99.90;;;;;;4958565;28;20571;-72
2024/03/01 00:07:05;;;;;;;22.07;12.87;;;5.50;99.90;;;;;;4971002;28;20249;-73
2024/03/01 00:09:32;;;;;;;21.57;12.60;;;5.50;99.90;;;;;;4962206;28;20215;-73
2024/03/01 00:11:58;;;;;;;27.40;13.80;;;5.40;99.90;;;;;;4959380;28;20223;-72
2024/03/01 00:14:23;;;;;;;22.53;12.40;;;5.40;99.90;;;;;;4961416;28;20483;-74
2024/03/01 00:16:50;;;;;;;18.37;10.63;;;5.50;99.90;;;;;;4940526;28;20284;-71
2024/03/01 00:19:16;;;;;;;24.77;12.20;;;5.50;99.90;;;;;;4963888;28;20669;-72
2024/03/01 00:21:41;;;;;;;24.97;13.37;;;5.40;99.90;;;;;;4955381;28;20542;-72
2024/03/01 00:24:10;;;;;;;25.50;12.63;;;5.30;99.90;;;;;;4959005;28;20289;-73
2024/03/01 00:26:35;;;;;;;26.30;11.97;;;5.30;99.90;;;;;;4958808;28;20226;-73
2024/03/01 00:29:01;;;;;;;30.30;14.50;;;5.30;99.90;;;;;;4959860;28;20460;-73
2024/03/01 00:31:27;;;;;;;21.90;11.37;;;5.30;99.90;;;;;;4963632;28;20223;-73
2024/03/01 00:33:52;;;;;;;20.77;12.20;;;5.30;99.90;;;;;;4961885;28;20211;-73
2024/03/01 00:36:19;;;;;;;24.67;13.93;;;5.30;99.90;;;;;;4958229;28;20223;-72
2024/03/01 00:38:44;;;;;;;21.67;13.17;;;5.30;99.90;;;;;;4955343;28;20281;-73
2024/03/01 00:41:10;;;;;;;19.80;10.90;;;5.30;99.90;;;;;;4958677;28;20477;-72
2024/03/01 00:43:36;;;;;;;19.90;11.40;;;5.30;99.90;;;;;;4955604;28;20222;-71
2024/03/01 00:46:02;;;;;;;21.73;12.80;;;5.30;99.90;;;;;;4960787;28;20234;-73
2024/03/01 00:48:27;;;;;;;24.23;11.67;;;5.30;99.90;;;;;;4961481;28;20473;-72
2024/03/01 00:50:53;;;;;;;24.10;12.83;;;5.30;99.90;;;;;;4955892;28;20754;-73
2024/03/01 00:53:19;;;;;;;24.57;12.67;;;5.20;99.90;;;;;;4977935;28;20723;-72
2024/03/01 00:55:44;;;;;;;23.43;12.47;;;5.20;99.90;;;;;;4977044;28;20229;-72
2024/03/01 00:58:10;;;;;;;23.53;12.70;;;5.20;99.90;;;;;;4967995;28;20218;-73
2024/03/01 01:00:36;;;;;;;21.00;11.43;;;5.20;99.90;;;;;;4942493;28;20350;-73
2024/03/01 01:03:01;;;;;;;21.13;12.37;;;5.20;99.90;;;;;;4963522;28;20224;-72
2024/03/01 01:05:27;;;;;;;20.43;11.03;;;5.20;99.90;;;;;;4960811;28;20227;-72
2024/03/01 01:07:53;;;;;;;21.57;11.23;;;5.10;99.90;;;;;;4961788;28;20214;-72
2024/03/01 01:10:20;;;;;;;21.27;12.60;;;5.00;99.90;;;;;;4962833;28;20466;-73
2024/03/01 01:12:46;;;;;;;22.77;11.37;;;5.10;99.90;;;;;;4974073;28;20223;-73
2024/03/01 01:15:11;;;;;;;20.40;11.43;;;5.10;99.90;;;;;;4979356;28;20465;-71
2024/03/01 01:17:37;;;;;;;29.90;12.87;;;5.10;99.90;;;;;;4962538;28;20480;-72
2024/03/01 01:20:03;;;;;;;22.90;12.13;;;5.00;99.90;;;;;;4962841;28;20234;-72
2024/03/01 01:22:29;;;;;;;25.13;11.90;;;5.00;99.90;;;;;;4962231;28;20218;-72
2024/03/01 01:24:55;;;;;;;21.27;11.93;;;5.00;99.90;;;;;;4960909;28;20464;-72
2024/03/01 01:27:20;;;;;;;24.50;11.70;;;5.00;99.90;;;;;;4965361;28;20234;-72
2024/03/01 01:29:46;;;;;;;21.10;12.07;;;5.00;99.90;;;;;;4961384;28;20215;-73
2024/03/01 01:32:12;;;;;;;23.23;11.00;;;5.00;99.90;;;;;;4947492;28;20231;-72
2024/03/01 01:34:37;;;;;;;23.77;12.77;;;4.90;99.90;;;;;;4961059;28;20218;-72
2024/03/01 01:37:04;;;;;;;21.37;11.90;;;4.90;99.90;;;;;;4962424;28;20215;-72
2024/03/01 01:39:30;;;;;;;23.80;12.90;;;4.90;99.90;;;;;;4964613;28;20222;-72
2024/03/01 01:41:56;;;;;;;20.67;11.70;;;4.90;99.90;;;;;;4959753;28;20460;-72
2024/03/01 01:44:22;;;;;;;29.00;13.93;;;4.90;99.90;;;;;;4966990;28;20456;-72
2024/03/01 01:46:49;;;;;;;23.87;12.93;;;4.90;99.90;;;;;;4945243;28;20212;-72
2024/03/01 01:49:20;;;;;;;22.30;11.87;;;4.90;99.90;;;;;;4959162;28;20302;-73
2024/03/01 01:51:47;;;;;;;25.80;11.90;;;4.90;99.90;;;;;;4961461;28;21050;-72
2024/03/01 01:54:14;;;;;;;26.33;12.90;;;4.80;99.90;;;;;;4967897;28;20849;-73
2024/03/01 01:56:41;;;;;;;23.83;12.30;;;4.80;99.90;;;;;;4962108;28;20455;-72
2024/03/01 01:59:07;;;;;;;25.87;12.77;;;4.90;99.90;;;;;;4962410;28;20552;-72
2024/03/01 02:01:32;;;;;;;21.23;13.10;;;4.90;99.90;;;;;;4961733;28;20475;-72
2024/03/01 02:03:58;;;;;;;23.47;11.67;;;4.90;99.90;;;;;;4958258;28;20549;-73
2024/03/01 02:06:24;;;;;;;19.03;12.03;;;4.90;99.90;;;;;;4959584;28;20222;-73
2024/03/01 02:08:50;;;;;;;19.10;11.60;;;4.90;99.90;;;;;;4958168;28;20294;-72
2024/03/01 02:11:16;;;;;;;23.27;11.93;;;4.80;99.90;;;;;;4959759;28;20219;-72
2024/03/01 02:13:42;;;;;;;25.63;12.47;;;4.80;99.90;;;;;;4956919;28;20816;-73
2024/03/01 02:16:08;;;;;;;25.40;12.33;;;4.90;99.90;;;;;;4958473;28;20516;-72
2024/03/01 02:18:34;;;;;;;24.47;11.73;;;4.90;99.90;;;;;;4962502;28;20466;-73
2024/03/01 02:21:14;;;;;;;27.40;13.13;;;4.80;99.90;;;;;;4975491;28;20246;-73
2024/03/01 02:23:40;;;;;;;31.47;12.00;;;4.80;99.90;;;;;;4957082;28;20215;-72
2024/03/01 02:26:06;;;;;;;22.17;11.30;;;4.80;99.90;;;;;;4962548;28;20975;-73
2024/03/01 02:28:32;;;;;;;27.73;13.03;;;4.80;99.90;;;;;;4961704;28;20793;-73
2024/03/01 02:30:59;;;;;;;24.47;12.77;;;4.80;99.90;;;;;;4960722;28;20526;-72
2024/03/01 02:33:25;;;;;;;20.97;11.40;;;4.70;99.90;;;;;;4962050;28;20547;-72
2024/03/01 02:35:51;;;;;;;26.67;11.80;;;4.70;99.90;;;;;;4960745;28;20459;-72
2024/03/01 02:38:17;;;;;;;23.63;11.80;;;4.80;99.90;;;;;;4962640;28;20545;-71
2024/03/01 02:40:43;;;;;;;23.87;12.20;;;4.80;99.90;;;;;;4959579;28;20561;-72
2024/03/01 02:43:09;;;;;;;25.10;12.60;;;4.80;99.90;;;;;;4947451;28;20254;-71
2024/03/01 02:45:36;;;;;;;20.93;11.40;;;4.80;99.90;;;;;;4959380;28;20470;-72
2024/03/01 02:48:02;;;;;;;26.97;12.77;;;4.80;99.90;;;;;;4965029;28;20520;-72
2024/03/01 02:50:28;;;;;;;23.00;12.77;;;4.80;99.90;;;;;;4969686;28;20481;-72
2024/03/01 02:52:54;;;;;;;22.83;12.13;;;4.80;99.90;;;;;;4959840;28;20462;-72
2024/03/01 02:55:20;;;;;;;21.50;11.73;;;4.80;99.90;;;;;;4965004;28;20226;-72
2024/03/01 02:57:51;;;;;;;21.40;11.77;;;4.80;99.90;;;;;;4952583;28;20223;-72
2024/03/01 03:00:17;;;;;;;25.27;12.03;;;4.80;99.90;;;;;;4961007;28;20230;-72
2024/03/01 03:02:43;;;;;;;24.10;12.87;;;4.80;99.90;;;;;;4958396;28;20453;-72
2024/03/01 03:05:09;;;;;;;20.83;11.37;;;4.80;99.90;;;;;;4962050;28;20450;-72
2024/03/01 03:07:36;;;;;;;29.63;13.77;;;4.90;99.90;;;;;;4961655;28;20250;-73
2024/03/01 03:10:02;;;;;;;23.30;12.23;;;4.80;99.90;;;;;;4945999;28;20498;-72
2024/03/01 03:12:28;;;;;;;22.83;11.80;;;4.80;99.90;;;;;;4962405;28;20465;-72
2024/03/01 03:14:54;;;;;;;25.10;13.07;;;4.80;99.90;;;;;;4953140;28;20462;-72
2024/03/01 03:17:20;;;;;;;25.73;12.40;;;4.80;99.90;;;;;;4957112;28;20230;-72
2024/03/01 03:19:45;;;;;;;29.60;13.40;;;4.70;99.90;;;;;;4960170;28;20226;-71
2024/03/01 03:22:11;;;;;;;23.63;11.97;;;4.80;99.90;;;;;;4976335;28;20214;-72
2024/03/01 03:24:38;;;;;;;25.60;13.30;;;4.80;99.90;;;;;;4957952;28;20230;-73
2024/03/01 03:27:03;;;;;;;19.20;11.97;;;4.80;99.90;;;;;;4961431;28;20231;-71
2024/03/01 03:29:30;;;;;;;25.27;14.17;;;4.80;99.90;;;;;;4959112;28;20484;-72
2024/03/01 03:31:55;;;;;;;24.67;14.10;;;4.80;99.90;;;;;;4940970;28;20735;-72
2024/03/01 03:34:21;;;;;;;25.40;12.83;;;4.80;99.90;;;;;;4960163;28;20462;-72
2024/03/01 03:36:47;;;;;;;25.93;12.37;;;4.80;99.90;;;;;;4940698;28;20206;-72
2024/03/01 03:39:14;;;;;;;23.43;12.27;;;4.80;99.90;;;;;;4968675;28;20257;-71
2024/03/01 03:41:41;;;;;;;23.10;12.70;;;4.80;99.90;;;;;;4941247;28;20466;-71
2024/03/01 03:44:06;;;;;;;22.97;12.37;;;4.80;99.90;;;;;;4963483;28;20487;-71
2024/03/01 03:46:32;;;;;;;25.17;12.33;;;4.80;99.90;;;;;;4944212;28;20489;-72
2024/03/01 03:48:58;;;;;;;25.67;12.73;;;4.80;99.90;;;;;;4955673;28;20693;-71
2024/03/01 03:51:25;;;;;;;27.67;13.10;;;4.70;99.90;;;;;;4955723;28;20218;-71
2024/03/01 03:53:52;;;;;;;26.77;13.63;;;4.80;99.90;;;;;;4960402;28;20747;-71
2024/03/01 03:56:17;;;;;;;22.70;11.70;;;4.80;99.90;;;;;;4959666;28;20450;-72
2024/03/01 03:58:43;;;;;;;27.90;13.30;;;4.80;99.90;;;;;;4959597;28;20545;-72
2024/03/01 04:01:09;;;;;;;31.67;13.90;;;4.70;99.90;;;;;;4959074;28;20234;-72
2024/03/01 04:03:34;;;;;;;20.77;12.97;;;4.70;99.90;;;;;;4959084;28;20214;-72
2024/03/01 04:06:00;;;;;;;20.33;11.43;;;4.70;99.90;;;;;;4957581;28;20227;-72
2024/03/01 04:08:26;;;;;;;25.40;12.93;;;4.70;99.90;;;;;;4945975;28;20219;-72
2024/03/01 04:10:51;;;;;;;25.57;14.17;;;4.70;99.90;;;;;;4955489;28;20223;-72
2024/03/01 04:13:17;;;;;;;28.20;13.87;;;4.70;99.90;;;;;;4959575;28;20640;-72
2024/03/01 04:15:43;;;;;;;24.93;13.27;;;4.70;99.90;;;;;;4955588;28;20861;-72
2024/03/01 04:18:10;;;;;;;36.27;12.93;;;4.70;99.90;;;;;;4955656;28;20218;-72
2024/03/01 04:20:36;;;;;;;29.77;13.70;;;4.70;99.90;;;;;;4956520;28;20561;-71
2024/03/01 04:23:04;;;;;;;23.00;12.67;;;4.70;99.90;;;;;;4955638;28;20473;-71
2024/03/01 04:25:32;;;;;;;30.77;14.33;;;4.70;99.90;;;;;;4959776;28;20480;-72
2024/03/01 04:27:57;;;;;;;28.50;13.73;;;4.70;99.90;;;;;;4955996;28;20463;-72
2024/03/01 04:30:23;;;;;;;21.37;11.70;;;4.70;99.90;;;;;;4961950;28;20456;-72
2024/03/01 04:32:49;;;;;;;21.00;11.40;;;4.70;99.90;;;;;;4957457;28;20729;-72
2024/03/01 04:35:15;;;;;;;28.53;12.50;;;4.70;99.90;;;;;;4963514;28;20222;-71
2024/03/01 04:37:43;;;;;;;24.67;12.90;;;4.70;99.90;;;;;;4960769;28;20458;-72
2024/03/01 04:40:09;;;;;;;27.27;14.50;;;4.70;99.90;;;;;;4965723;28;20366;-72
2024/03/01 04:42:36;;;;;;;24.40;12.30;;;4.70;99.90;;;;;;4964688;28;20550;-71
2024/03/01 04:45:02;;;;;;;27.53;13.80;;;4.70;99.90;;;;;;4960066;28;20472;-72
2024/03/01 04:47:28;;;;;;;28.27;13.30;;;4.70;99.90;;;;;;4976804;28;20869;-72
2024/03/01 04:49:53;;;;;;;23.40;11.67;;;4.70;99.90;;;;;;4967679;28;20478;-72
2024/03/01 04:52:19;;;;;;;26.30;12.90;;;4.70;99.90;;;;;;4965200;28;20234;-72
2024/03/01 04:54:46;;;;;;;23.67;13.27;;;4.70;99.90;;;;;;4957991;28;20214;-73
2024/03/01 04:57:11;;;;;;;24.23;12.30;;;4.70;99.90;;;;;;4973370;28;20230;-72
2024/03/01 04:59:39;;;;;;;24.20;12.47;;;4.70;99.90;;;;;;4965310;28;20557;-72
2024/03/01 05:02:05;;;;;;;26.90;14.30;;;4.80;99.90;;;;;;4961850;28;20210;-72
2024/03/01 05:04:31;;;;;;;28.77;13.40;;;4.70;99.90;;;;;;4963383;28;20447;-72
2024/03/01 05:06:57;;;;;;;33.20;17.70;;;4.70;99.90;;;;;;4963397;28;25230;-72
2024/03/01 05:09:23;;;;;;;33.07;15.60;;;4.70;99.90;;;;;;4962630;28;20896;-72
2024/03/01 05:11:48;;;;;;;29.47;15.00;;;4.70;99.90;;;;;;4959586;28;20678;-72
2024/03/01 05:14:14;;;;;;;30.50;17.13;;;4.70;99.90;;;;;;4961564;28;20221;-71
2024/03/01 05:16:39;;;;;;;34.03;18.10;;;4.70;99.90;;;;;;4959379;28;20238;-72
2024/03/01 05:19:05;;;;;;;32.87;16.73;;;4.70;99.90;;;;;;4963343;28;20250;-72
2024/03/01 05:21:31;;;;;;;28.50;15.07;;;4.70;99.90;;;;;;4963334;28;20227;-72
2024/03/01 05:23:57;;;;;;;26.10;14.40;;;4.60;99.90;;;;;;4959749;28;20274;-72
2024/03/01 05:26:25;;;;;;;26.67;15.30;;;4.70;99.90;;;;;;4962267;28;20245;-72
2024/03/01 05:28:52;;;;;;;30.90;14.00;;;4.70;99.90;;;;;;4959479;28;20469;-72
2024/03/01 05:31:18;;;;;;;23.77;12.90;;;4.70;99.90;;;;;;4963013;28;20474;-72
2024/03/01 05:33:44;;;;;;;26.73;13.37;;;4.70;99.90;;;;;;4963222;28;20462;-73
2024/03/01 05:36:10;;;;;;;29.87;14.83;;;4.70;99.90;;;;;;4960839;28;20829;-73
2024/03/01 05:38:36;;;;;;;40.90;14.50;;;4.70;99.90;;;;;;4962487;28;20872;-72
2024/03/01 05:41:01;;;;;;;26.20;13.50;;;4.70;99.90;;;;;;4960110;28;20472;-72
2024/03/01 05:43:27;;;;;;;29.67;13.00;;;4.70;99.90;;;;;;4962051;28;20736;-72
2024/03/01 05:45:55;;;;;;;28.63;14.50;;;4.70;99.90;;;;;;4958238;28;20722;-72
2024/03/01 05:48:20;;;;;;;32.50;13.33;;;4.70;99.90;;;;;;4964311;28;20282;-72
2024/03/01 05:50:46;;;;;;;25.87;13.53;;;4.70;99.90;;;;;;4941991;28;20545;-72
2024/03/01 05:53:14;;;;;;;26.17;15.00;;;4.70;99.90;;;;;;4966327;28;20216;-72
2024/03/01 05:55:40;;;;;;;33.17;15.43;;;4.80;99.90;;;;;;4945971;28;20231;-72
2024/03/01 05:58:07;;;;;;;24.80;12.90;;;4.80;99.90;;;;;;4959999;28;20462;-73
2024/03/01 06:00:32;;;;;;;27.57;14.30;;;4.80;99.90;;;;;;4962558;28;20471;-72
2024/03/01 06:02:58;;;;;;;29.73;15.57;;;4.80;99.90;;;;;;4960812;28;20480;-72
2024/03/01 06:05:23;;;;;;;30.00;13.50;;;4.80;99.90;;;;;;4965204;28;20214;-72
2024/03/01 06:07:49;;;;;;;26.30;13.17;;;4.80;99.90;;;;;;4961999;28;20220;-72
2024/03/01 06:10:16;;;;;;;28.70;14.30;;;4.80;99.90;;;;;;4962106;28;20231;-72
2024/03/01 06:12:42;;;;;;;25.90;13.10;;;4.80;99.90;;;;;;4960413;28;20218;-73
2024/03/01 06:15:08;;;;;;;29.63;14.67;;;4.80;99.90;;;;;;4948973;28;20477;-73
2024/03/01 06:17:34;;;;;;;24.70;13.80;;;4.80;99.90;;;;;;4964306;28;20317;-73
2024/03/01 06:20:01;;;;;;;30.07;13.93;;;4.80;99.90;;;;;;4957666;28;20230;-72
2024/03/01 06:22:30;;;;;;;26.33;13.97;;;4.80;99.90;;;;;;4962936;28;20490;-72
2024/03/01 06:24:56;;;;;;;24.73;12.30;;;4.80;99.90;;;;;;4963489;28;20496;-72
2024/03/01 06:27:22;;;;;;;22.60;13.67;;;4.80;99.90;;;;;;4963341;28;20490;-73
2024/03/01 06:29:48;;;;;;;27.13;14.10;;;4.80;99.90;;;;;;4957609;28;20215;-72
2024/03/01 06:32:14;;;;;;;26.50;13.07;;;4.80;99.90;;;;;;4964312;28;20458;-72
2024/03/01 06:34:40;;;;;;;23.70;13.73;;;4.80;99.90;;;;;;4973558;28;21253;-72
2024/03/01 06:37:06;;;;;;;26.67;13.07;;;4.70;99.90;;;;;;4958670;28;20470;-72
2024/03/01 06:39:31;;;;;;;26.80;13.70;;;4.70;99.90;;;;;;4961574;28;20239;-72
2024/03/01 06:41:57;;;;;;;26.00;14.97;;;4.70;99.90;;;;;;4962677;28;20249;-72
2024/03/01 06:44:25;;;;;;;28.77;13.83;;;4.80;99.90;;;;;;4964584;28;20222;-72
2024/03/01 06:46:53;;;;;;;26.57;13.57;;;4.80;99.90;;;;;;4958580;28;20222;-73
2024/03/01 06:49:20;;;;;;;23.27;14.60;;;4.80;99.90;;;;;;4963683;28;20488;-72
2024/03/01 06:51:46;;;;;;;32.50;15.13;;;4.80;99.90;;;;;;4957534;28;21012;-73
2024/03/01 06:54:12;;;;;;;29.57;13.90;;;4.80;99.90;;;;;;4962010;28;20461;-73
2024/03/01 06:56:42;;;;;;;34.23;16.00;;;4.80;99.90;;;;;;4960484;28;20455;-73
2024/03/01 06:59:08;;;;;;;33.43;15.20;;;4.80;99.90;;;;;;4965023;28;20449;-73
2024/03/01 07:01:33;;;;;;;29.43;15.40;;;4.70;99.90;;;;;;4972253;28;20553;-73
2024/03/01 07:03:59;;;;;;;28.80;15.13;;;4.80;99.90;;;;;;4961445;28;20458;-72
2024/03/01 07:06:25;;;;;;;31.83;14.73;;;4.80;99.90;;;;;;4962531;28;20227;-72
2024/03/01 07:08:51;;;;;;;28.57;14.37;;;4.90;99.90;;;;;;4943867;28;20526;-73
2024/03/01 07:11:16;;;;;;;26.60;15.23;;;4.90;99.90;;;;;;4960182;28;20246;-72
2024/03/01 07:13:42;;;;;;;32.60;14.60;;;5.00;99.90;;;;;;4955984;28;20318;-73
2024/03/01 07:16:08;;;;;;;34.03;15.10;;;5.00;99.90;;;;;;4963486;28;20345;-72
2024/03/01 07:18:33;;;;;;;27.03;13.27;;;5.00;99.90;;;;;;4959660;28;20473;-73
2024/03/01 07:20:59;;;;;;;27.63;15.57;;;5.10;99.90;;;;;;4967782;28;20242;-73
2024/03/01 07:23:25;;;;;;;22.30;14.33;;;5.00;99.90;;;;;;4958140;28;20218;-72
2024/03/01 07:25:50;;;;;;;26.53;13.80;;;5.00;99.90;;;;;;4960326;28;20249;-72
2024/03/01 07:28:16;;;;;;;29.80;14.93;;;5.00;99.90;;;;;;4960887;28;20233;-72
2024/03/01 07:30:43;;;;;;;30.57;13.77;;;4.90;99.90;;;;;;4962589;28;20258;-72
2024/03/01 07:33:08;;;;;;;29.17;15.30;;;5.00;99.90;;;;;;4957722;28;20250;-72
2024/03/01 07:35:34;;;;;;;25.50;15.27;;;4.90;99.90;;;;;;4975103;28;20517;-72
2024/03/01 07:38:00;;;;;;;31.37;15.97;;;4.90;99.90;;;;;;4951643;28;20219;-73
2024/03/01 07:40:25;;;;;;;30.63;15.83;;;5.00;99.90;;;;;;4944990;28;20267;-72
2024/03/01 07:42:51;;;;;;;29.23;15.77;;;5.00;99.90;;;;;;4955345;28;20247;-74
2024/03/01 07:45:17;;;;;;;32.90;17.80;;;5.00;99.90;;;;;;4963270;28;20223;-72
2024/03/01 07:47:44;;;;;;;31.57;16.50;;;5.00;99.90;;;;;;4944372;28;20306;-72
2024/03/01 07:50:09;;;;;;;24.63;15.10;;;5.10;99.90;;;;;;4971035;28;20225;-72
2024/03/01 07:52:35;;;;;;;28.40;15.40;;;5.10;99.90;;;;;;4954618;28;20464;-73
2024/03/01 07:55:01;;;;;;;26.47;14.23;;;5.20;99.90;;;;;;4958236;28;20233;-72
2024/03/01 07:57:26;;;;;;;42.83;18.63;;;5.20;99.90;;;;;;4962100;28;20727;-73
2024/03/01 07:59:52;;;;;;;27.83;15.27;;;5.20;99.90;;;;;;4959380;28;20245;-73
2024/03/01 08:02:18;;;;;;;30.97;16.30;;;5.20;99.90;;;;;;4941143;28;20227;-73
2024/03/01 08:04:44;;;;;;;26.57;16.40;;;5.20;99.90;;;;;;4963571;28;20207;-73
2024/03/01 08:07:16;;;;;;;23.07;13.33;;;5.20;99.90;;;;;;4969718;28;20223;-73
2024/03/01 08:09:44;;;;;;;30.30;15.47;;;5.30;99.90;;;;;;4972951;28;20537;-73
2024/03/01 08:12:14;;;;;;;26.67;14.20;;;5.30;99.90;;;;;;4957973;28;20545;-73
2024/03/01 08:14:40;;;;;;;34.03;15.63;;;5.30;99.90;;;;;;4941769;28;20470;-72
2024/03/01 08:17:07;;;;;;;31.87;14.47;;;5.30;99.90;;;;;;4942311;28;20462;-73
2024/03/01 08:19:38;;;;;;;31.57;15.67;;;5.30;99.90;;;;;;4945216;28;21014;-73
2024/03/01 08:22:14;;;;;;;32.77;18.17;;;5.40;99.90;;;;;;4956893;28;20528;-74
2024/03/01 08:24:41;;;;;;;36.63;21.13;;;5.50;99.90;;;;;;4958672;28;20548;-72
2024/03/01 08:27:08;;;;;;;41.70;19.20;;;5.50;99.90;;;;;;4957799;28;20463;-73
2024/03/01 08:29:35;;;;;;;43.40;23.87;;;5.50;99.90;;;;;;4944475;28;20459;-73
2024/03/01 08:32:02;;;;;;;38.67;23.90;;;5.50;99.90;;;;;;4959438;28;20455;-72
2024/03/01 08:34:41;;;;;;;37.77;21.40;;;5.50;99.90;;;;;;4959149;28;20954;-73
2024/03/01 08:37:07;;;;;;;35.90;21.40;;;5.60;99.90;;;;;;4940533;28;20842;-73
2024/03/01 08:39:33;;;;;;;28.33;17.67;;;5.60;99.90;;;;;;4959905;28;20459;-73
2024/03/01 08:42:01;;;;;;;29.63;17.43;;;5.70;99.90;;;;;;4950711;28;20230;-73
2024/03/01 08:44:53;;;;;;;29.27;15.87;;;5.70;99.90;;;;;;4946044;28;20979;-73
2024/03/01 08:47:41;;;;;;;24.70;14.20;;;5.80;99.90;;;;;;4960553;28;20462;-73
2024/03/01 08:50:25;;;;;;;26.40;15.90;;;5.80;99.90;;;;;;4969861;28;20447;-73
2024/03/01 08:52:52;;;;;;;33.03;16.67;;;5.90;99.90;;;;;;4971892;28;20469;-73
2024/03/01 08:55:18;;;;;;;31.40;15.77;;;6.00;99.90;;;;;;4962203;28;20511;-73
2024/03/01 08:57:47;;;;;;;22.67;14.67;;;6.00;99.90;;;;;;4961307;28;20490;-73
2024/03/01 09:00:39;;;;;;;28.57;15.67;;;6.10;99.90;;;;;;4957344;28;20321;-73
2024/03/01 09:03:09;;;;;;;21.73;13.40;;;6.20;99.90;;;;;;4969795;28;20605;-74
2024/03/01 09:05:39;;;;;;;21.63;13.90;;;6.20;99.90;;;;;;4962458;28;20501;-74
2024/03/01 09:08:05;;;;;;;19.23;12.67;;;6.30;99.90;;;;;;4956580;28;20478;-74
2024/03/01 09:10:35;;;;;;;21.03;13.00;;;6.30;99.90;;;;;;4957143;28;20991;-73
2024/03/01 09:13:06;;;;;;;27.20;13.67;;;6.30;99.90;;;;;;4959429;28;20564;-73
2024/03/01 09:15:50;;;;;;;20.20;11.77;;;6.40;99.90;;;;;;4974414;28;20511;-73
2024/03/01 09:18:31;;;;;;;25.50;11.03;;;6.40;99.90;;;;;;4962423;28;20493;-72
2024/03/01 09:20:57;;;;;;;23.47;13.83;;;6.50;99.90;;;;;;4973507;28;20483;-73
2024/03/01 09:23:23;;;;;;;20.40;12.27;;;6.50;99.90;;;;;;4963560;28;20562;-73
2024/03/01 09:25:48;;;;;;;23.70;11.60;;;6.60;99.90;;;;;;4943856;28;20898;-74
2024/03/01 09:28:16;;;;;;;19.40;9.47;;;6.80;99.90;;;;;;4965426;28;20235;-72
2024/03/01 09:30:46;;;;;;;13.87;7.63;;;6.90;99.90;;;;;;4962948;28;20249;-73
2024/03/01 09:33:20;;;;;;;15.73;9.77;;;7.20;99.90;;;;;;4963090;28;20494;-73
2024/03/01 09:35:50;;;;;;;14.60;8.97;;;7.30;99.90;;;;;;4962368;28;20503;-73
2024/03/01 09:38:17;;;;;;;21.97;11.80;;;7.30;99.90;;;;;;4963227;28;20609;-73
2024/03/01 09:40:57;;;;;;;20.40;11.50;;;7.30;99.90;;;;;;4963935;28;20481;-73
2024/03/01 09:43:35;;;;;;;18.60;10.23;;;7.30;99.90;;;;;;4947747;28;20493;-73
2024/03/01 09:46:07;;;;;;;23.90;10.30;;;7.40;99.90;;;;;;4956809;28;20466;-73
2024/03/01 09:48:42;;;;;;;14.67;9.60;;;7.40;99.90;;;;;;4963570;28;20462;-73
2024/03/01 09:51:26;;;;;;;14.20;9.50;;;7.50;99.90;;;;;;4959646;28;20465;-73
2024/03/01 09:53:54;;;;;;;16.47;9.57;;;7.50;99.90;;;;;;4958900;28;20485;-74
2024/03/01 09:56:41;;;;;;;13.20;9.00;;;7.40;99.90;;;;;;4961494;28;20474;-73
2024/03/01 09:59:20;;;;;;;17.37;9.73;;;7.40;99.90;;;;;;4956874;28;20465;-73
2024/03/01 10:01:54;;;;;;;14.10;8.57;;;7.50;99.90;;;;;;4961477;28;20999;-73
2024/03/01 10:04:31;;;;;;;15.97;8.73;;;7.50;99.90;;;;;;4974986;28;20454;-73
2024/03/01 10:07:16;;;;;;;18.70;8.90;;;7.50;99.90;;;;;;4958605;28;20480;-74
2024/03/01 10:10:00;;;;;;;13.63;8.63;;;7.50;99.90;;;;;;4960380;28;20472;-73
2024/03/01 10:12:35;;;;;;;16.80;9.50;;;7.60;99.90;;;;;;4963983;28;20992;-73
2024/03/01 10:15:09;;;;;;;16.00;9.13;;;7.60;99.90;;;;;;4956712;28;20498;-73
2024/03/01 10:18:00;;;;;;;18.63;9.63;;;7.60;99.90;;;;;;4964599;28;20469;-74
2024/03/01 10:20:41;;;;;;;19.10;11.50;;;7.60;99.90;;;;;;4957709;28;20480;-73
2024/03/01 10:23:43;;;;;;;14.80;9.73;;;7.70;99.90;;;;;;4956396;28;20461;-74
2024/03/01 10:26:26;;;;;;;18.93;9.87;;;7.70;99.90;;;;;;4954179;28;20458;-73
2024/03/01 10:29:20;;;;;;;17.87;9.07;;;7.70;99.90;;;;;;4958572;28;20470;-73
2024/03/01 10:32:10;;;;;;;13.73;7.90;;;7.70;99.90;;;;;;4959644;28;20474;-73
2024/03/01 10:34:41;;;;;;;16.30;7.80;;;7.80;99.90;;;;;;4958029;28;20472;-73
2024/03/01 10:37:15;;;;;;;10.10;6.50;;;7.80;99.90;;;;;;4972543;28;20499;-74
2024/03/01 10:39:57;;;;;;;7.67;5.07;;;7.90;99.90;;;;;;4964191;28;20489;-73
2024/03/01 10:42:27;;;;;;;12.33;8.80;;;7.90;99.90;;;;;;4944853;28;20454;-73
2024/03/01 10:45:11;;;;;;;11.63;6.60;;;7.90;99.90;;;;;;4962223;28;20615;-74
2024/03/01 10:47:38;;;;;;;6.67;4.20;;;7.90;99.90;;;;;;4962286;28;20469;-74
2024/03/01 10:50:15;;;;;;;4.70;3.90;;;7.90;99.90;;;;;;4957725;28;20474;-74
2024/03/01 10:52:44;;;;;;;5.30;3.50;;;7.90;99.90;;;;;;4960508;28;20464;-74
2024/03/01 10:55:23;;;;;;;4.43;3.23;;;7.90;99.90;;;;;;4939899;28;21024;-74
2024/03/01 10:57:54;;;;;;;3.50;2.30;;;8.00;99.90;;;;;;4958334;28;20541;-74
2024/03/01 11:00:26;;;;;;;2.53;2.33;;;8.00;99.90;;;;;;4959905;28;20481;-74
2024/03/01 11:03:14;;;;;;;3.33;2.40;;;8.00;99.90;;;;;;4942399;28;20462;-74
2024/03/01 11:05:39;;;;;;;2.30;2.10;;;8.00;99.90;;;;;;4957822;28;20464;-74
2024/03/01 11:08:38;;;;;;;3.23;2.43;;;8.00;99.90;;;;;;4957299;28;20458;-73
2024/03/01 11:11:11;;;;;;;2.93;2.10;;;8.00;99.90;;;;;;4956493;28;20310;-74
2024/03/01 11:13:39;;;;;;;2.23;2.03;;;8.00;99.90;;;;;;4959671;28;20472;-74
2024/03/01 11:16:08;;;;;;;2.83;1.97;;;8.00;99.90;;;;;;4957800;28;20461;-74
2024/03/01 11:18:39;;;;;;;5.13;2.80;;;8.00;99.90;;;;;;4961606;28;20473;-74
2024/03/01 11:21:10;;;;;;;5.67;2.93;;;8.00;99.90;;;;;;4957475;28;20485;-74
2024/03/01 11:23:41;;;;;;;5.77;5.17;;;8.00;99.90;;;;;;4959556;28;20513;-74
2024/03/01 11:26:16;;;;;;;7.20;6.00;;;8.00;99.90;;;;;;4956402;28;20520;-74
2024/03/01 11:28:48;;;;;;;5.37;4.30;;;7.90;99.90;;;;;;4959237;28;20825;-74
2024/03/01 11:31:18;;;;;;;4.20;3.20;;;8.00;99.90;;;;;;4962089;28;20474;-74
2024/03/01 11:33:47;;;;;;;3.90;3.50;;;8.00;99.90;;;;;;4961172;28;20477;-74
2024/03/01 11:36:38;;;;;;;5.70;3.37;;;8.00;99.90;;;;;;4961706;28;20478;-74
2024/03/01 11:39:45;;;;;;;7.30;3.60;;;8.00;99.90;;;;;;4959242;28;20466;-75
2024/03/01 11:42:35;;;;;;;5.03;3.80;;;8.00;99.90;;;;;;4963457;28;20466;-73
2024/03/01 11:45:19;;;;;;;4.70;2.80;;;8.00;99.90;;;;;;4966723;28;20458;-74
2024/03/01 11:48:07;;;;;;;3.30;3.00;;;8.00;99.90;;;;;;4965821;28;20462;-74
2024/03/01 11:51:11;;;;;;;3.77;2.47;;;8.00;99.90;;;;;;4965402;28;20544;-74
2024/03/01 11:53:48;;;;;;;4.27;2.37;;;8.10;99.90;;;;;;4965303;28;21050;-74
2024/03/01 11:56:41;;;;;;;3.03;2.40;;;8.20;99.90;;;;;;4962105;28;20465;-74
2024/03/01 11:59:33;;;;;;;4.47;2.80;;;8.20;99.90;;;;;;4957423;28;20465;-74
2024/03/01 12:02:36;;;;;;;3.63;2.77;;;8.40;99.90;;;;;;4955121;28;21008;-75
2024/03/01 12:05:16;;;;;;;4.00;2.27;;;8.40;99.90;;;;;;4967169;28;20524;-74
2024/03/01 12:08:20;;;;;;;2.20;1.53;;;8.40;99.90;;;;;;4957535;28;20553;-74
2024/03/01 12:11:01;;;;;;;2.40;1.73;;;8.50;99.90;;;;;;4954547;28;20453;-74
2024/03/01 12:13:30;;;;;;;3.23;2.20;;;8.50;99.90;;;;;;4945909;28;20492;-74
2024/03/01 12:16:20;;;;;;;2.83;2.10;;;8.50;99.90;;;;;;4957626;28;20466;-74
2024/03/01 12:18:58;;;;;;;1.87;1.60;;;8.50;99.90;;;;;;4957789;28;20482;-74
2024/03/01 12:21:41;;;;;;;1.50;1.40;;;8.60;99.90;;;;;;4958338;28;20478;-74
2024/03/01 12:24:15;;;;;;;2.87;2.10;;;8.60;99.90;;;;;;4957273;28;20565;-74
2024/03/01 12:26:56;;;;;;;2.60;1.80;;;8.70;99.90;;;;;;4959068;28;20465;-74
2024/03/01 12:29:37;;;;;;;1.80;1.70;;;8.70;99.90;;;;;;4959703;28;20480;-73
2024/03/01 12:32:22;;;;;;;1.80;1.57;;;8.70;99.90;;;;;;4955632;28;20499;-75
2024/03/01 12:35:13;;;;;;;1.63;1.53;;;8.70;99.90;;;;;;4974139;28;20462;-74
2024/03/01 12:37:50;;;;;;;1.80;1.70;;;8.70;99.90;;;;;;4961297;28;20499;-74
2024/03/01 12:40:18;;;;;;;1.97;1.77;;;8.70;99.90;;;;;;4960678;28;21133;-74
2024/03/01 12:43:07;;;;;;;1.70;1.60;;;8.70;99.90;;;;;;4943440;28;20486;-74
2024/03/01 12:45:52;;;;;;;4.90;3.50;;;8.80;99.90;;;;;;4936928;28;20462;-74
2024/03/01 12:48:23;;;;;;;5.97;3.63;;;8.80;99.90;;;;;;4962310;28;20506;-74
2024/03/01 12:51:03;;;;;;;6.77;4.17;;;8.80;99.90;;;;;;4961303;28;20746;-72
2024/03/01 12:53:58;;;;;;;32.30;13.97;;;8.80;99.90;;;;;;4943672;28;20544;-74
2024/03/01 12:56:32;;;;;;;43.67;22.03;;;8.90;99.90;;;;;;4948221;28;20466;-74